Time;durP1;ratioP1;P1;durP2;ratioP2;P2;SDS_P1;SDS_P2;PMS_P1;PMS_P2;Temp;Humidity;BMP_temperature;BMP_pressure;BME280_temperature;BME280_humidity;BME280_pressure;Samples;Min_cycle;Max_cycle;Signal;HPM_P1;HPM_P2
2022/08/15 00:02:04;;;;;;;12.10;5.93;;;;;;;21.25;71.33;99447.84;5550426;32;33961;-70
2022/08/15 00:05:33;;;;;;;9.40;6.55;;;;;;;21.22;71.84;99459.16;5550432;32;35554;-70
2022/08/15 00:08:47;;;;;;;10.98;5.72;;;;;;;21.14;71.77;99450.75;5550370;32;34709;-70
2022/08/15 00:11:57;;;;;;;13.88;5.93;;;;;;;21.09;71.96;99445.28;5550584;32;34673;-70
2022/08/15 00:15:01;;;;;;;8.10;5.68;;;;;;;21.09;71.96;99459.59;5550469;32;34562;-70
2022/08/15 00:18:05;;;;;;;6.62;5.50;;;;;;;21.15;71.51;99452.37;5548981;32;34060;-70
2022/08/15 00:21:10;;;;;;;11.40;5.45;;;;;;;21.22;71.16;99456.47;5549429;32;33914;-70
2022/08/15 00:24:17;;;;;;;9.05;5.78;;;;;;;21.44;70.07;99460.94;5549705;32;33221;-70
2022/08/15 00:27:31;;;;;;;8.30;5.53;;;;;;;21.53;69.54;99456.66;5549148;32;32992;-70
2022/08/15 00:30:38;;;;;;;8.90;5.50;;;;;;;21.48;69.71;99454.75;5549990;32;34029;-70
2022/08/15 00:34:02;;;;;;;7.45;5.60;;;;;;;21.42;69.84;99457.66;5549110;32;33175;-70
2022/08/15 00:37:28;;;;;;;12.82;6.07;;;;;;;21.38;70.09;99453.88;5550130;32;34119;-70
2022/08/15 00:41:39;;;;;;;8.80;5.53;;;;;;;21.40;70.72;99446.31;5550073;32;34015;-70
2022/08/15 00:43:57;;;;;;;6.15;5.50;;;;;;;21.28;70.50;99445.72;5549918;32;34354;-69
2022/08/15 00:47:05;;;;;;;10.05;5.55;;;;;;;21.10;71.39;99455.81;5549872;32;34554;-69
2022/08/15 00:50:13;;;;;;;11.57;6.22;;;;;;;20.98;71.86;99455.19;5550025;32;34077;-70
2022/08/15 00:53:37;;;;;;;10.70;6.12;;;;;;;20.94;72.18;99455.97;5550044;32;34397;-70
2022/08/15 00:56:46;;;;;;;8.95;5.75;;;;;;;20.89;72.52;99455.91;5549622;32;34644;-70
2022/08/15 00:59:57;;;;;;;8.50;6.20;;;;;;;20.87;72.82;99466.13;5549206;32;34697;-70
2022/08/15 01:03:04;;;;;;;9.50;5.60;;;;;;;20.80;73.13;99477.97;5549899;32;34028;-70
2022/08/15 01:06:07;;;;;;;11.18;6.30;;;;;;;20.82;73.06;99467.72;5549709;32;35278;-70
2022/08/15 01:09:10;;;;;;;9.23;5.85;;;;;;;20.90;73.77;99469.16;5548431;32;33418;-70
2022/08/15 01:12:18;;;;;;;10.73;6.32;;;;;;;20.94;73.68;99464.03;5548678;32;33253;-69
2022/08/15 01:15:24;;;;;;;7.57;6.07;;;;;;;21.02;73.66;99461.69;5548746;32;32772;-70
2022/08/15 01:18:45;;;;;;;13.20;6.47;;;;;;;21.08;73.51;99465.22;5549707;32;33929;-70
2022/08/15 01:22:00;;;;;;;9.73;6.03;;;;;;;21.13;73.79;99466.13;5549185;32;34082;-69
2022/08/15 01:25:16;;;;;;;12.35;6.57;;;;;;;21.12;74.15;99469.84;5549095;32;34030;-70
2022/08/15 01:28:43;;;;;;;13.52;6.53;;;;;;;21.15;75.19;99471.25;5549443;32;34101;-69
2022/08/15 01:31:47;;;;;;;16.67;7.20;;;;;;;21.29;75.24;99474.31;5549263;32;32806;-70
2022/08/15 01:34:52;;;;;;;14.35;6.65;;;;;;;21.25;75.82;99468.66;5551770;32;34647;-70
2022/08/15 01:37:58;;;;;;;12.77;6.70;;;;;;;21.19;76.18;99478.56;5551730;32;34238;-70
2022/08/15 01:41:19;;;;;;;12.18;6.95;;;;;;;21.15;76.47;99479.34;5551862;32;34482;-70
2022/08/15 01:45:06;;;;;;;13.57;6.68;;;;;;;21.05;77.08;99480.06;5551661;32;34053;-70
2022/08/15 01:48:25;;;;;;;13.95;6.95;;;;;;;20.89;78.32;99474.78;5551878;32;34652;-69
2022/08/15 01:51:28;;;;;;;20.42;7.03;;;;;;;20.84;79.28;99483.66;5550553;32;33001;-70
2022/08/15 01:54:40;;;;;;;15.88;7.18;;;;;;;20.76;79.72;99487.62;5551622;32;34603;-69
2022/08/15 01:58:07;;;;;;;15.20;6.90;;;;;;;20.86;79.29;99484.22;5551556;32;34617;-70
2022/08/15 02:01:17;;;;;;;20.55;7.10;;;;;;;21.08;77.33;99489.50;5551538;32;34191;-70
2022/08/15 02:04:28;;;;;;;17.42;6.50;;;;;;;21.09;76.30;99488.44;5551498;32;34403;-70
2022/08/15 02:07:31;;;;;;;12.68;6.45;;;;;;;21.10;76.46;99485.50;5551782;32;34115;-70
2022/08/15 02:10:43;;;;;;;15.15;6.47;;;;;;;20.97;76.70;99474.31;5551040;32;34094;-69
2022/08/15 02:13:56;;;;;;;15.45;7.12;;;;;;;20.84;77.37;99480.94;5551196;32;34801;-70
2022/08/15 02:16:59;;;;;;;12.30;6.37;;;;;;;20.75;77.93;99488.69;5551332;32;34002;-70
2022/08/15 02:20:05;;;;;;;12.45;6.72;;;;;;;20.79;78.00;99473.63;5551323;32;34611;-70
2022/08/15 02:23:27;;;;;;;17.35;6.47;;;;;;;20.89;75.98;99475.59;5551281;32;34616;-69
2022/08/15 02:26:31;;;;;;;11.50;6.80;;;;;;;20.84;77.87;99470.16;5551293;32;33865;-69
2022/08/15 02:29:35;;;;;;;6.60;5.75;;;;;;;20.76;77.50;99468.75;5546887;32;138685;-70
2022/08/15 02:32:56;;;;;;;10.27;6.40;;;;;;;20.56;77.27;99465.06;5551108;32;33972;-70
2022/08/15 02:36:02;;;;;;;10.43;6.22;;;;;;;20.45;77.24;99460.63;5551667;32;34675;-70
2022/08/15 02:39:09;;;;;;;9.73;6.03;;;;;;;20.41;77.10;99467.59;5551285;32;34618;-70
2022/08/15 02:42:14;;;;;;;8.60;6.12;;;;;;;20.31;77.87;99461.03;5551113;32;33959;-69
2022/08/15 02:45:17;;;;;;;8.25;6.37;;;;;;;20.24;78.04;99457.69;5551018;32;34105;-70
2022/08/15 02:48:21;;;;;;;7.45;6.00;;;;;;;20.22;77.95;99457.12;5551110;32;34630;-70
2022/08/15 02:51:30;;;;;;;7.00;5.95;;;;;;;20.20;77.76;99458.44;5550303;32;32475;-70
2022/08/15 02:54:55;;;;;;;8.50;6.45;;;;;;;20.16;77.82;99460.84;5539454;32;33989;-70
2022/08/15 02:58:02;;;;;;;7.18;5.43;;;;;;;20.14;77.71;99454.88;5550992;32;34530;-70
2022/08/15 03:01:10;;;;;;;11.63;6.30;;;;;;;20.12;77.60;99454.34;5551411;32;34612;-70
2022/08/15 03:04:22;;;;;;;9.88;5.82;;;;;;;20.12;78.72;99465.09;5551014;32;33936;-70
2022/08/15 03:07:31;;;;;;;8.23;6.53;;;;;;;20.09;78.58;99462.91;5551295;32;33952;-70
2022/08/15 03:10:38;;;;;;;11.57;6.70;;;;;;;20.06;79.08;99474.19;5550239;32;33904;-70
2022/08/15 03:13:43;;;;;;;7.47;5.87;;;;;;;20.05;79.15;99469.84;5550792;32;33959;-69
2022/08/15 03:16:49;;;;;;;11.80;6.57;;;;;;;19.99;79.29;99468.19;5551122;32;35457;-69
2022/08/15 03:19:54;;;;;;;9.80;6.35;;;;;;;19.98;80.27;99477.31;5550820;32;34518;-69
2022/08/15 03:23:00;;;;;;;10.68;6.62;;;;;;;20.17;79.65;99473.25;5550766;32;34029;-69
2022/08/15 03:26:06;;;;;;;13.02;6.80;;;;;;;20.14;79.61;99468.34;5550819;32;34031;-69
2022/08/15 03:29:28;;;;;;;10.63;6.82;;;;;;;20.07;79.83;99469.63;5550725;32;33952;-69
2022/08/15 03:32:52;;;;;;;13.62;7.32;;;;;;;19.99;80.38;99470.06;5550847;32;33932;-69
2022/08/15 03:35:55;;;;;;;17.75;7.65;;;;;;;19.93;80.70;99470.00;5550681;32;34596;-69
2022/08/15 03:38:58;;;;;;;10.95;7.40;;;;;;;19.88;81.34;99463.75;5550754;32;33837;-69
2022/08/15 03:42:09;;;;;;;10.50;7.18;;;;;;;19.87;82.21;99472.88;5550663;32;34103;-68
2022/08/15 03:45:21;;;;;;;14.48;7.20;;;;;;;19.85;82.50;99478.50;5550186;32;34280;-68
2022/08/15 03:48:30;;;;;;;14.87;7.37;;;;;;;19.86;82.11;99479.31;5550450;32;34072;-69
2022/08/15 03:51:37;;;;;;;15.43;7.15;;;;;;;19.92;80.95;99481.81;5550943;32;34101;-69
2022/08/15 03:54:44;;;;;;;15.68;7.10;;;;;;;19.78;81.13;99485.13;5549855;32;34541;-69
2022/08/15 03:57:53;;;;;;;21.42;7.68;;;;;;;19.76;81.22;99488.06;5549636;32;33916;-69
2022/08/15 04:01:11;;;;;;;16.42;7.15;;;;;;;19.70;81.45;99496.34;5550852;32;33885;-69
2022/08/15 04:04:17;;;;;;;15.70;6.57;;;;;;;19.68;82.10;99503.84;5550294;32;34663;-69
2022/08/15 04:07:20;;;;;;;19.77;7.22;;;;;;;19.61;82.88;99498.63;5549371;32;33106;-69
2022/08/15 04:10:26;;;;;;;15.18;6.60;;;;;;;19.53;83.08;99497.19;5550378;32;34062;-69
2022/08/15 04:13:45;;;;;;;10.35;7.20;;;;;;;19.51;83.82;99503.84;5550600;32;34659;-69
2022/08/15 04:16:56;;;;;;;45.38;8.23;;;;;;;19.49;83.41;99500.63;5550236;32;33947;-69
2022/08/15 04:20:09;;;;;;;18.37;7.10;;;;;;;19.53;83.20;99507.13;5550354;32;34784;-69
2022/08/15 04:23:32;;;;;;;15.38;7.60;;;;;;;19.58;83.09;99504.50;5549518;32;34708;-69
2022/08/15 04:26:36;;;;;;;14.43;7.40;;;;;;;19.62;83.79;99504.81;5549282;32;34026;-69
2022/08/15 04:29:39;;;;;;;17.27;7.22;;;;;;;19.72;85.45;99494.19;5549305;32;34378;-69
2022/08/15 04:32:44;;;;;;;19.40;7.40;;;;;;;19.73;84.80;99493.13;5550223;32;34626;-70
2022/08/15 04:36:05;;;;;;;15.23;7.37;;;;;;;19.78;83.69;99493.22;5549905;32;33893;-69
2022/08/15 04:39:08;;;;;;;15.00;6.93;;;;;;;19.87;83.16;99492.53;5550005;32;33483;-70
2022/08/15 04:42:14;;;;;;;16.70;6.50;;;;;;;20.00;84.22;99490.50;5549826;32;34639;-69
2022/08/15 04:45:28;;;;;;;25.05;7.28;;;;;;;20.30;81.34;99496.28;5549358;32;34003;-69
2022/08/15 04:48:32;;;;;;;10.43;6.90;;;;;;;20.42;81.58;99504.25;5549698;32;33994;-69
2022/08/15 04:51:37;;;;;;;17.58;7.10;;;;;;;20.55;81.73;99504.66;5549314;32;34255;-69
2022/08/15 04:54:41;;;;;;;13.02;6.65;;;;;;;20.68;79.46;99498.84;5549564;32;32999;-70
2022/08/15 04:58:03;;;;;;;21.90;7.72;;;;;;;20.93;78.52;99494.78;5548857;32;35216;-70
2022/08/15 05:01:27;;;;;;;10.88;7.18;;;;;;;21.10;77.49;99498.97;5549340;32;34633;-70
2022/08/15 05:04:49;;;;;;;17.00;7.50;;;;;;;21.30;76.99;99497.53;5549784;32;33913;-70
2022/08/15 05:07:53;;;;;;;16.77;7.22;;;;;;;21.35;75.27;99492.19;5551721;32;34114;-70
2022/08/15 05:11:05;;;;;;;14.25;7.05;;;;;;;21.58;76.21;99489.09;5550506;32;32517;-70
2022/08/15 05:14:08;;;;;;;12.15;7.18;;;;;;;21.80;75.63;99492.44;5551351;32;33947;-70
2022/08/15 05:17:31;;;;;;;12.57;6.82;;;;;;;22.06;74.71;99494.22;5540189;32;33231;-70
2022/08/15 05:21:05;;;;;;;18.00;6.55;;;;;;;22.20;72.03;99491.84;5550936;32;32516;-70
2022/08/15 05:24:09;;;;;;;13.73;6.37;;;;;;;22.36;71.70;99490.81;5551461;32;34781;-70
2022/08/15 05:27:14;;;;;;;12.85;6.75;;;;;;;22.40;69.93;99486.50;5551940;32;33845;-70
2022/08/15 05:30:23;;;;;;;13.27;6.12;;;;;;;22.45;69.11;99478.41;5551379;32;34656;-70
2022/08/15 05:33:31;;;;;;;21.95;7.40;;;;;;;22.67;68.50;99491.66;5550791;32;33444;-69
2022/08/15 05:36:55;;;;;;;16.17;6.93;;;;;;;22.99;67.56;99487.97;5551677;32;35155;-70
2022/08/15 05:39:58;;;;;;;24.45;6.90;;;;;;;23.09;66.30;99493.38;5550424;32;34593;-70
2022/08/15 05:43:11;;;;;;;13.57;6.53;;;;;;;23.57;65.83;99481.97;5551240;32;33990;-69
2022/08/15 05:46:27;;;;;;;13.05;6.15;;;;;;;23.88;63.50;99485.38;5551441;32;33938;-70
2022/08/15 05:49:42;;;;;;;11.03;6.97;;;;;;;24.37;62.47;99495.50;5551112;32;34365;-70
2022/08/15 05:52:49;;;;;;;8.70;6.05;;;;;;;24.48;61.13;99503.31;5551776;32;34044;-69
2022/08/15 05:56:17;;;;;;;11.43;5.85;;;;;;;24.78;61.46;99496.06;5551066;32;34501;-70
2022/08/15 05:59:33;;;;;;;10.88;5.93;;;;;;;24.85;59.84;99499.25;5550965;32;34702;-70
2022/08/15 06:02:41;;;;;;;7.22;5.60;;;;;;;25.02;58.28;99494.28;5551487;32;33998;-70
2022/08/15 06:06:06;;;;;;;9.15;5.43;;;;;;;25.24;57.60;99491.09;5550453;32;34117;-71
2022/08/15 06:10:09;;;;;;;6.65;5.10;;;;;;;25.38;55.97;99498.28;5551182;32;33640;-70
2022/08/15 06:13:40;;;;;;;7.15;5.30;;;;;;;25.32;56.39;99496.72;5472203;32;33966;-69
2022/08/15 06:16:50;;;;;;;13.48;5.72;;;;;;;25.52;55.65;99498.44;5472211;32;34482;-70
2022/08/15 06:20:00;;;;;;;11.38;5.57;;;;;;;25.81;55.51;99493.78;5472477;32;34636;-69
2022/08/15 06:23:24;;;;;;;10.77;5.97;;;;;;;25.93;54.13;99496.13;5472564;32;34037;-69
2022/08/15 06:27:02;;;;;;;7.55;5.20;;;;;;;26.17;54.18;99496.09;5472631;32;34055;-70
2022/08/15 06:30:19;;;;;;;7.55;5.15;;;;;;;26.04;55.11;99496.81;5472621;32;34094;-69
2022/08/15 06:33:33;;;;;;;11.40;5.53;;;;;;;26.09;54.63;99502.19;5472492;32;34530;-70
2022/08/15 06:37:19;;;;;;;12.10;5.37;;;;;;;25.99;55.78;99497.69;5472374;32;33852;-69
2022/08/15 06:40:38;;;;;;;9.57;5.93;;;;;;;25.59;56.49;99498.94;5459215;32;33169;-70
2022/08/15 06:43:43;;;;;;;;;;;;;;;25.71;57.19;99493.09;5473072;32;35175;-69
2022/08/15 06:46:49;;;;;;;14.40;6.47;;;;;;;25.68;55.85;99496.41;5509112;32;34225;-70
2022/08/15 06:50:09;;;;;;;15.98;6.60;;;;;;;25.77;55.32;99505.53;5550849;32;35125;-70
2022/08/15 06:53:30;;;;;;;9.68;5.87;;;;;;;25.93;55.67;99498.84;5550899;32;34051;-70
2022/08/15 06:56:32;;;;;;;10.07;5.87;;;;;;;26.30;52.90;99496.22;5550807;32;34527;-70
2022/08/15 06:59:54;;;;;;;10.25;6.10;;;;;;;26.69;53.10;99506.00;5551023;32;33945;-69
2022/08/15 07:03:23;;;;;;;10.73;5.90;;;;;;;26.67;52.37;99500.88;5550525;32;34509;-69
2022/08/15 07:06:49;;;;;;;12.65;6.15;;;;;;;26.68;52.59;99496.22;5550513;32;35138;-69
2022/08/15 07:09:52;;;;;;;9.20;5.72;;;;;;;27.48;49.43;99496.03;5549219;32;35030;-70
2022/08/15 07:13:06;;;;;;;8.98;5.37;;;;;;;28.00;48.66;99505.69;5549631;32;33032;-69
2022/08/15 07:16:56;;;;;;;8.13;5.07;;;;;;;28.15;48.08;99499.13;5549963;32;34582;-70
2022/08/15 07:20:00;;;;;;;11.65;5.25;;;;;;;29.79;43.07;99502.81;5514864;32;32444;-70
2022/08/15 07:23:27;;;;;;;11.02;5.80;;;;;;;30.51;41.59;99504.34;5550461;32;35214;-70
2022/08/15 07:26:49;;;;;;;9.38;4.93;;;;;;;29.13;44.50;99509.19;5549474;32;33444;-70
2022/08/15 07:30:00;;;;;;;8.65;5.37;;;;;;;29.01;45.27;99499.94;5550398;32;34026;-70
2022/08/15 07:33:48;;;;;;;16.55;5.10;;;;;;;29.32;44.47;99501.62;5550330;32;34312;-70
2022/08/15 07:37:05;;;;;;;12.63;5.35;;;;;;;28.74;45.79;99498.94;5471551;32;34807;-69
2022/08/15 07:40:36;;;;;;;11.48;5.57;;;;;;;29.24;45.48;99507.03;5471673;32;33792;-69
2022/08/15 07:43:42;;;;;;;13.25;5.65;;;;;;;29.87;43.39;99503.19;5458961;32;34099;-70
2022/08/15 07:46:59;;;;;;;15.10;5.18;;;;;;;29.54;44.27;99505.41;5471543;32;33783;-69
2022/08/15 07:50:04;;;;;;;15.30;5.70;;;;;;;29.92;43.17;99506.59;5471466;32;35365;-70
2022/08/15 07:53:20;;;;;;;17.15;5.50;;;;;;;30.21;42.58;99501.34;5472105;32;34606;-70
2022/08/15 07:56:26;;;;;;;7.60;5.10;;;;;;;29.96;42.22;99507.59;5458661;32;33529;-70
2022/08/15 08:00:21;;;;;;;7.22;5.35;;;;;;;29.55;43.97;99498.84;5459101;32;33137;-70
2022/08/15 08:03:50;;;;;;;9.63;5.20;;;;;;;29.79;43.11;99502.81;5459026;32;33298;-70
2022/08/15 08:07:04;;;;;;;11.77;5.50;;;;;;;31.17;40.92;99492.13;5446352;32;33592;-70
2022/08/15 08:10:15;;;;;;;9.77;5.60;;;;;;;32.64;39.07;99495.00;5459041;32;34788;-70
2022/08/15 08:13:43;;;;;;;12.13;5.20;;;;;;;32.42;37.51;99507.09;5543334;32;34842;-69
2022/08/15 08:16:51;;;;;;;9.50;5.03;;;;;;;31.73;38.47;99504.72;5549900;32;33859;-69
2022/08/15 08:20:53;;;;;;;9.18;4.82;;;;;;;32.74;37.90;99506.41;5548516;32;34267;-69
2022/08/15 08:24:08;;;;;;;6.55;4.32;;;;;;;33.03;35.38;99497.25;5538106;32;35080;-69
2022/08/15 08:27:19;;;;;;;12.57;5.68;;;;;;;32.07;37.21;99498.25;5549659;32;34636;-70
2022/08/15 08:30:36;;;;;;;11.48;4.90;;;;;;;32.35;37.25;99495.84;5549500;32;34660;-70
2022/08/15 08:38:07;;;;;;;6.95;4.20;;;;;;;33.71;34.64;99505.16;5548539;32;32630;-70
2022/08/15 08:41:45;;;;;;;5.85;4.07;;;;;;;35.11;31.35;99504.38;5548168;32;33426;-70
2022/08/15 08:45:10;;;;;;;5.43;4.30;;;;;;;36.34;29.44;99512.31;5549000;32;34733;-71
2022/08/15 08:48:50;;;;;;;6.68;4.35;;;;;;;36.39;27.92;99509.25;5548462;32;32965;-70
2022/08/15 08:52:03;;;;;;;9.82;4.03;;;;;;;35.86;29.52;99509.94;5549382;32;34695;-70
2022/08/15 08:55:24;;;;;;;11.23;3.95;;;;;;;36.43;27.44;99501.84;5548911;32;34584;-70
2022/08/15 08:58:53;;;;;;;4.32;3.35;;;;;;;36.76;27.42;99489.53;5549023;32;33891;-71
2022/08/15 09:02:00;;;;;;;8.07;3.87;;;;;;;36.42;27.05;99493.91;5548337;32;33963;-70
2022/08/15 09:05:21;;;;;;;5.30;3.80;;;;;;;35.63;28.50;99487.66;5548944;32;34722;-70
2022/08/15 09:08:36;;;;;;;13.02;4.00;;;;;;;35.73;29.16;99484.38;5548906;32;35101;-70
2022/08/15 09:11:49;;;;;;;5.53;3.28;;;;;;;36.74;27.64;99483.59;5548869;32;34646;-69
2022/08/15 09:15:00;;;;;;;5.40;3.58;;;;;;;37.19;26.63;99488.44;5548704;32;33939;-69
2022/08/15 09:18:25;;;;;;;4.80;3.45;;;;;;;37.89;24.95;99479.78;5547569;32;33330;-70
2022/08/15 09:21:29;;;;;;;8.13;3.50;;;;;;;38.20;25.08;99487.78;5548294;32;33976;-71
2022/08/15 09:24:41;;;;;;;7.25;3.70;;;;;;;38.50;26.30;99490.63;5535014;32;33622;-70
2022/08/15 09:28:32;;;;;;;6.62;3.60;;;;;;;38.83;24.79;99465.69;5548542;32;34029;-70
2022/08/15 09:31:41;;;;;;;10.93;3.60;;;;;;;39.95;23.52;99459.66;5536540;32;34422;-71
2022/08/15 09:35:05;;;;;;;5.05;3.33;;;;;;;38.76;24.93;99473.13;5548167;32;34605;-70
2022/08/15 09:38:32;;;;;;;3.60;3.12;;;;;;;40.09;21.89;99470.06;5549053;32;34584;-70
2022/08/15 09:41:52;;;;;;;3.42;2.80;;;;;;;39.04;22.59;99462.38;5547870;32;33195;-69
2022/08/15 09:45:34;;;;;;;7.80;3.40;;;;;;;39.30;21.82;99464.25;5548422;32;33933;-69
2022/08/15 09:49:09;;;;;;;5.90;3.17;;;;;;;38.87;22.60;99461.00;5548498;32;34011;-70
2022/08/15 09:52:45;;;;;;;8.30;3.35;;;;;;;39.85;20.91;99454.84;5549390;32;34157;-71
2022/08/15 09:55:54;;;;;;;7.28;3.47;;;;;;;39.96;21.31;99455.72;5551224;32;35294;-70
2022/08/15 09:59:10;;;;;;;4.18;3.50;;;;;;;38.53;22.49;99459.41;5550568;32;33915;-70
2022/08/15 10:02:27;;;;;;;4.80;3.10;;;;;;;40.25;22.35;99439.22;5550793;32;33373;-70
2022/08/15 10:06:03;;;;;;;7.85;3.55;;;;;;;39.61;22.54;99438.75;5550126;32;33102;-71
2022/08/15 10:09:33;;;;;;;5.40;4.12;;;;;;;38.01;24.21;99440.81;5550018;32;34356;-69
2022/08/15 10:12:37;;;;;;;6.25;3.40;;;;;;;37.35;25.08;99431.03;5550858;32;34358;-71
2022/08/15 10:15:47;;;;;;;9.52;3.78;;;;;;;38.49;24.47;99417.75;5549890;32;32453;-72
2022/08/15 10:18:55;;;;;;;5.03;3.78;;;;;;;40.02;22.30;99422.00;5551095;32;33985;-69
2022/08/15 10:22:01;;;;;;;3.53;2.90;;;;;;;39.35;22.44;99417.53;5550306;32;32795;-71
2022/08/15 10:25:20;;;;;;;4.85;3.28;;;;;;;38.54;22.80;99419.41;5550987;32;34135;-70
2022/08/15 10:28:25;;;;;;;6.68;3.62;;;;;;;36.23;25.20;99408.25;5550653;32;34575;-69
2022/08/15 10:31:54;;;;;;;4.03;3.47;;;;;;;34.69;27.38;99408.34;5550159;32;32788;-69
2022/08/15 10:35:23;;;;;;;5.00;3.70;;;;;;;33.57;28.88;99409.19;5529268;32;32837;-70
2022/08/15 10:38:29;;;;;;;4.90;3.22;;;;;;;33.68;29.58;99399.37;5550913;32;34764;-70
2022/08/15 10:41:57;;;;;;;6.50;3.40;;;;;;;34.65;27.49;99401.09;5550959;32;34229;-70
2022/08/15 10:45:02;;;;;;;7.00;3.80;;;;;;;37.09;24.33;99408.81;5550695;32;32796;-68
2022/08/15 10:48:30;;;;;;;6.55;3.28;;;;;;;39.51;21.79;99412.50;5537703;32;32873;-70
2022/08/15 10:52:19;;;;;;;3.47;3.05;;;;;;;41.13;19.87;99405.41;5550131;32;34084;-71
2022/08/15 10:55:32;;;;;;;5.07;3.20;;;;;;;41.14;19.22;99398.66;5549985;32;32617;-70
2022/08/15 10:59:06;;;;;;;6.68;2.92;;;;;;;41.98;19.69;99397.81;5550589;32;34166;-70
2022/08/15 11:02:14;;;;;;;3.65;2.92;;;;;;;43.42;17.09;99393.91;5550237;32;34050;-70
2022/08/15 11:05:37;;;;;;;4.35;3.20;;;;;;;43.68;17.23;99387.66;5550812;32;34495;-69
2022/08/15 11:09:04;;;;;;;6.43;3.12;;;;;;;42.88;18.19;99385.91;5550739;32;33977;-70
2022/08/15 11:12:08;;;;;;;3.10;2.80;;;;;;;44.18;16.93;99393.53;5550722;32;34662;-70
2022/08/15 11:15:21;;;;;;;6.70;2.95;;;;;;;44.62;16.81;99395.41;5550750;32;34589;-70
2022/08/15 11:18:34;;;;;;;4.15;3.15;;;;;;;43.49;17.34;99379.88;5550458;32;33997;-68
2022/08/15 11:21:43;;;;;;;7.40;3.08;;;;;;;43.55;16.92;99387.41;5550581;32;35198;-70
2022/08/15 11:25:01;;;;;;;3.20;2.90;;;;;;;42.28;19.27;99375.03;5550498;32;34549;-72
2022/08/15 11:28:06;;;;;;;4.30;3.10;;;;;;;42.94;18.01;99375.09;5550532;32;34048;-70
2022/08/15 11:31:29;;;;;;;4.55;2.85;;;;;;;44.30;17.17;99367.84;5549631;32;34222;-70
2022/08/15 11:34:42;;;;;;;3.30;2.83;;;;;;;42.86;17.15;99370.75;5550469;32;34115;-69
2022/08/15 11:37:47;;;;;;;4.82;2.87;;;;;;;42.48;18.73;99370.56;5549541;32;32521;-71
2022/08/15 11:40:59;;;;;;;6.55;2.92;;;;;;;44.36;16.82;99365.38;5550044;32;33859;-69
2022/08/15 11:44:09;;;;;;;2.90;2.42;;;;;;;44.15;16.41;99364.41;5550482;32;34381;-70
2022/08/15 11:47:15;;;;;;;4.45;2.50;;;;;;;43.88;16.33;99355.16;5550344;32;33966;-71
2022/08/15 11:50:31;;;;;;;4.85;2.60;;;;;;;43.15;16.75;99363.00;5550170;32;34084;-70
2022/08/15 11:53:45;;;;;;;5.78;2.65;;;;;;;44.66;14.68;99357.00;5550602;32;34118;-69
2022/08/15 11:56:48;;;;;;;3.78;2.42;;;;;;;45.03;14.34;99355.28;5549361;32;33165;-69
2022/08/15 12:00:03;;;;;;;4.05;2.35;;;;;;;43.95;14.88;99346.69;5550286;32;34040;-70
2022/08/15 12:03:27;;;;;;;4.60;2.15;;;;;;;44.59;14.08;99352.25;5549512;32;34201;-69
2022/08/15 12:06:54;;;;;;;2.95;2.60;;;;;;;46.65;13.48;99340.91;5549508;32;32322;-69
2022/08/15 12:10:00;;;;;;;6.22;3.10;;;;;;;45.23;15.03;99339.31;5550082;32;33911;-71
2022/08/15 12:13:07;;;;;;;3.35;2.85;;;;;;;42.23;17.13;99341.19;5549392;32;32805;-71
2022/08/15 12:16:31;;;;;;;4.90;2.78;;;;;;;43.79;16.39;99326.88;5548405;32;33719;-71
2022/08/15 12:19:37;;;;;;;2.85;2.62;;;;;;;45.25;15.13;99334.88;5550144;32;34075;-71
2022/08/15 12:23:26;;;;;;;4.15;2.50;;;;;;;48.16;12.85;99336.63;5549893;32;34604;-72
2022/08/15 12:26:29;;;;;;;4.50;2.45;;;;;;;48.10;12.37;99336.38;5549438;32;32924;-71
2022/08/15 12:29:50;;;;;;;4.32;2.58;;;;;;;46.38;13.47;99336.72;5550147;32;34557;-71
2022/08/15 12:32:54;;;;;;;5.57;2.70;;;;;;;48.00;12.77;99322.63;5548814;32;33996;-72
2022/08/15 12:36:03;;;;;;;3.65;2.80;;;;;;;44.75;14.63;99320.06;5549161;32;34269;-70
2022/08/15 12:39:07;;;;;;;4.75;2.35;;;;;;;45.31;14.21;99321.19;5549444;32;32696;-71
2022/08/15 12:42:18;;;;;;;3.58;2.33;;;;;;;47.07;13.17;99316.66;5548647;32;32749;-69
2022/08/15 12:45:40;;;;;;;6.78;2.87;;;;;;;46.37;14.12;99307.09;5549145;32;32443;-70
2022/08/15 12:48:46;;;;;;;4.57;2.60;;;;;;;47.63;12.56;99312.81;5549666;32;34083;-71
2022/08/15 12:51:59;;;;;;;3.37;2.50;;;;;;;48.49;11.93;99309.09;5548662;32;32583;-70
2022/08/15 12:55:04;;;;;;;5.07;2.53;;;;;;;48.10;12.26;99299.81;5549634;32;34346;-69
2022/08/15 12:58:12;;;;;;;4.45;2.45;;;;;;;49.06;11.70;99297.56;5549559;32;34809;-70
2022/08/15 13:01:19;;;;;;;3.78;2.20;;;;;;;47.89;11.67;99295.56;5548731;32;34707;-69
2022/08/15 13:04:27;;;;;;;10.15;2.42;;;;;;;46.70;13.32;99297.50;5549426;32;35093;-68
2022/08/15 13:07:50;;;;;;;3.00;2.22;;;;;;;46.84;12.50;99291.53;5549306;32;34162;-70
2022/08/15 13:11:14;;;;;;;2.97;2.17;;;;;;;47.21;12.63;99301.44;5548506;32;32611;-71
2022/08/15 13:14:18;;;;;;;2.87;2.08;;;;;;;48.24;10.41;99305.00;5548723;32;32716;-70
2022/08/15 13:17:22;;;;;;;3.22;2.17;;;;;;;49.91;10.31;99297.38;5548298;32;32519;-71
2022/08/15 13:24:09;;;;;;;2.65;2.22;;;;;;;49.96;10.00;99284.72;5548935;32;34221;-70
2022/08/15 13:27:22;;;;;;;6.00;2.20;;;;;;;46.03;12.86;99270.97;5550906;32;34025;-70
2022/08/15 13:30:30;;;;;;;3.62;2.22;;;;;;;46.01;13.07;99271.38;5551518;32;34668;-71
2022/08/15 13:33:42;;;;;;;3.92;2.35;;;;;;;48.38;11.56;99275.66;5551356;32;33869;-69
2022/08/15 13:36:49;;;;;;;6.60;2.40;;;;;;;48.79;11.01;99266.31;5550809;32;34782;-71
2022/08/15 13:39:57;;;;;;;4.37;2.75;;;;;;;47.99;11.98;99261.97;5551727;32;34526;-71
2022/08/15 13:43:02;;;;;;;5.45;2.30;;;;;;;46.35;12.64;99265.44;5551540;32;33917;-71
2022/08/15 13:46:25;;;;;;;2.90;2.60;;;;;;;44.64;14.05;99250.28;5551383;32;34696;-71
2022/08/15 13:49:32;;;;;;;3.53;2.47;;;;;;;48.09;11.76;99244.78;5537592;32;32938;-71
2022/08/15 13:52:37;;;;;;;3.25;2.40;;;;;;;49.73;10.71;99242.84;5551691;32;34024;-70
2022/08/15 13:55:52;;;;;;;6.95;2.53;;;;;;;50.21;10.79;99242.19;5551048;32;34114;-69
2022/08/15 13:58:57;;;;;;;3.35;2.80;;;;;;;45.18;13.65;99245.38;5550380;32;32604;-70
2022/08/15 14:02:04;;;;;;;7.62;2.62;;;;;;;44.62;14.26;99235.12;5550191;32;32379;-70
2022/08/15 14:05:27;;;;;;;3.58;2.30;;;;;;;44.85;15.07;99235.16;5551302;32;34653;-69
2022/08/15 14:08:37;;;;;;;5.05;2.40;;;;;;;47.53;12.76;99236.78;5551159;32;34091;-69
2022/08/15 14:12:01;;;;;;;;;;;;;;;47.09;13.13;99246.00;5551065;32;34899;-70
2022/08/15 14:15:05;;;;;;;8.77;2.80;;;;;;;46.93;12.59;99235.59;5549794;32;33196;-69
2022/08/15 14:18:09;;;;;;;3.50;2.50;;;;;;;47.02;12.96;99241.34;5549758;32;32758;-70
2022/08/15 14:21:32;;;;;;;3.35;2.47;;;;;;;43.22;15.20;99231.75;5539564;32;32864;-68
2022/08/15 14:24:35;;;;;;;3.87;2.37;;;;;;;40.17;17.76;99232.75;5550581;32;33853;-69
2022/08/15 14:27:58;;;;;;;6.87;2.67;;;;;;;40.36;18.21;99223.28;5539762;32;34147;-70
2022/08/15 14:31:03;;;;;;;5.68;2.58;;;;;;;40.85;17.76;99233.66;5549654;32;34668;-70
2022/08/15 14:34:26;;;;;;;5.45;2.72;;;;;;;40.42;18.09;99226.47;5549194;32;35443;-70
2022/08/15 14:37:50;;;;;;;3.92;2.30;;;;;;;38.10;20.78;99225.34;5549529;32;34606;-70
2022/08/15 14:41:13;;;;;;;4.18;2.17;;;;;;;37.32;19.09;99222.34;5550548;32;34033;-70
2022/08/15 14:44:19;;;;;;;4.10;2.17;;;;;;;36.07;19.64;99220.53;5548929;32;33904;-71
2022/08/15 14:47:43;;;;;;;4.82;2.20;;;;;;;35.64;20.30;99208.59;5550879;32;33852;-70
2022/08/15 14:50:49;;;;;;;3.90;2.40;;;;;;;36.61;19.49;99206.56;5550128;32;34150;-69
2022/08/15 14:54:18;;;;;;;6.00;2.50;;;;;;;36.23;19.41;99217.69;5550587;32;34655;-66
2022/08/15 14:57:41;;;;;;;4.30;2.65;;;;;;;34.50;21.81;99220.06;5550524;32;34203;-70
2022/08/15 15:01:04;;;;;;;4.55;2.55;;;;;;;33.65;23.29;99221.22;5549933;32;34024;-69
2022/08/15 15:04:27;;;;;;;4.65;2.33;;;;;;;34.05;23.05;99215.69;5548630;32;32936;-70
2022/08/15 15:07:37;;;;;;;3.47;2.42;;;;;;;37.38;19.63;99220.81;5549834;32;34958;-69
2022/08/15 15:11:00;;;;;;;4.43;2.58;;;;;;;37.73;19.37;99228.03;5549546;32;34270;-69
2022/08/15 15:14:08;;;;;;;3.28;2.53;;;;;;;36.31;21.24;99220.22;5549187;32;34032;-67
2022/08/15 15:17:19;;;;;;;6.47;3.00;;;;;;;34.73;23.29;99218.31;5549678;32;35402;-70
2022/08/15 15:20:27;;;;;;;4.18;2.80;;;;;;;33.73;24.80;99217.56;5549953;32;33931;-71
2022/08/15 15:23:49;;;;;;;6.30;2.83;;;;;;;33.14;26.17;99226.34;5549935;32;34234;-70